sensor_id;sensor_type;location;lat;lon;timestamp;P1;durP1;ratioP1;P2;durP2;ratioP2
37275;SDS011;23166;51.150;21.620;2022-09-20T00:03:13;8.60;;;2.47;;
37275;SDS011;23166;51.150;21.620;2022-09-20T00:05:41;6.83;;;3.10;;
37275;SDS011;23166;51.150;21.620;2022-09-20T00:08:10;5.15;;;2.50;;
37275;SDS011;23166;51.150;21.620;2022-09-20T00:10:38;5.12;;;2.45;;
37275;SDS011;23166;51.150;21.620;2022-09-20T00:13:06;5.40;;;2.47;;
37275;SDS011;23166;51.150;21.620;2022-09-20T00:15:34;3.87;;;2.58;;
37275;SDS011;23166;51.150;21.620;2022-09-20T00:18:07;5.67;;;2.87;;
37275;SDS011;23166;51.150;21.620;2022-09-20T00:20:33;5.33;;;2.58;;
37275;SDS011;23166;51.150;21.620;2022-09-20T00:23:00;6.58;;;3.75;;
37275;SDS011;23166;51.150;21.620;2022-09-20T00:25:26;4.87;;;2.70;;
37275;SDS011;23166;51.150;21.620;2022-09-20T00:27:52;3.70;;;2.50;;
37275;SDS011;23166;51.150;21.620;2022-09-20T00:30:19;7.20;;;3.72;;
37275;SDS011;23166;51.150;21.620;2022-09-20T00:32:45;5.70;;;3.37;;
37275;SDS011;23166;51.150;21.620;2022-09-20T00:35:13;3.62;;;2.87;;
37275;SDS011;23166;51.150;21.620;2022-09-20T00:37:40;4.47;;;2.85;;
37275;SDS011;23166;51.150;21.620;2022-09-20T00:40:10;5.50;;;3.72;;
37275;SDS011;23166;51.150;21.620;2022-09-20T00:42:41;5.30;;;3.47;;
37275;SDS011;23166;51.150;21.620;2022-09-20T00:45:29;8.35;;;4.42;;
37275;SDS011;23166;51.150;21.620;2022-09-20T00:50:40;5.15;;;2.92;;
37275;SDS011;23166;51.150;21.620;2022-09-20T00:53:27;7.10;;;3.90;;
37275;SDS011;23166;51.150;21.620;2022-09-20T00:58:26;7.17;;;3.35;;
37275;SDS011;23166;51.150;21.620;2022-09-20T01:00:55;6.75;;;3.72;;
37275;SDS011;23166;51.150;21.620;2022-09-20T01:03:24;9.03;;;4.17;;
37275;SDS011;23166;51.150;21.620;2022-09-20T01:05:53;5.92;;;3.40;;
37275;SDS011;23166;51.150;21.620;2022-09-20T01:08:20;7.78;;;4.08;;
37275;SDS011;23166;51.150;21.620;2022-09-20T01:10:50;9.45;;;4.70;;
37275;SDS011;23166;51.150;21.620;2022-09-20T01:13:17;7.03;;;4.22;;
37275;SDS011;23166;51.150;21.620;2022-09-20T01:15:44;6.20;;;2.50;;
37275;SDS011;23166;51.150;21.620;2022-09-20T01:18:12;7.60;;;4.22;;
37275;SDS011;23166;51.150;21.620;2022-09-20T01:20:41;9.80;;;4.00;;
37275;SDS011;23166;51.150;21.620;2022-09-20T01:23:15;8.85;;;4.37;;
37275;SDS011;23166;51.150;21.620;2022-09-20T01:28:30;9.30;;;4.40;;
37275;SDS011;23166;51.150;21.620;2022-09-20T01:36:21;7.10;;;4.70;;
37275;SDS011;23166;51.150;21.620;2022-09-20T01:38:53;9.20;;;4.47;;
37275;SDS011;23166;51.150;21.620;2022-09-20T01:41:35;10.80;;;4.85;;
37275;SDS011;23166;51.150;21.620;2022-09-20T01:46:59;9.58;;;4.47;;
37275;SDS011;23166;51.150;21.620;2022-09-20T02:06:33;12.30;;;5.33;;
37275;SDS011;23166;51.150;21.620;2022-09-20T02:09:14;9.93;;;5.53;;
37275;SDS011;23166;51.150;21.620;2022-09-20T02:29:31;10.48;;;6.33;;
37275;SDS011;23166;51.150;21.620;2022-09-20T02:43:54;11.35;;;6.33;;
37275;SDS011;23166;51.150;21.620;2022-09-20T02:49:25;12.35;;;6.58;;
37275;SDS011;23166;51.150;21.620;2022-09-20T02:54:59;14.60;;;6.57;;
37275;SDS011;23166;51.150;21.620;2022-09-20T03:00:19;14.70;;;7.30;;
37275;SDS011;23166;51.150;21.620;2022-09-20T03:08:30;12.18;;;6.03;;
37275;SDS011;23166;51.150;21.620;2022-09-20T03:11:20;13.28;;;6.97;;
37275;SDS011;23166;51.150;21.620;2022-09-20T03:16:31;13.83;;;5.95;;
37275;SDS011;23166;51.150;21.620;2022-09-20T03:22:15;23.62;;;7.67;;
37275;SDS011;23166;51.150;21.620;2022-09-20T03:40:35;13.22;;;6.90;;
37275;SDS011;23166;51.150;21.620;2022-09-20T03:43:03;13.80;;;6.58;;
37275;SDS011;23166;51.150;21.620;2022-09-20T03:45:35;13.98;;;6.28;;
37275;SDS011;23166;51.150;21.620;2022-09-20T03:53:55;13.50;;;7.53;;
37275;SDS011;23166;51.150;21.620;2022-09-20T04:02:31;17.32;;;7.50;;
37275;SDS011;23166;51.150;21.620;2022-09-20T04:05:08;15.43;;;7.75;;
37275;SDS011;23166;51.150;21.620;2022-09-20T04:13:16;15.75;;;7.72;;
37275;SDS011;23166;51.150;21.620;2022-09-20T04:18:34;12.75;;;6.37;;
37275;SDS011;23166;51.150;21.620;2022-09-20T04:26:19;15.50;;;7.00;;
37275;SDS011;23166;51.150;21.620;2022-09-20T04:31:52;12.07;;;6.65;;
37275;SDS011;23166;51.150;21.620;2022-09-20T04:34:24;14.80;;;7.10;;
37275;SDS011;23166;51.150;21.620;2022-09-20T04:37:23;11.70;;;6.22;;
37275;SDS011;23166;51.150;21.620;2022-09-20T04:39:54;12.55;;;7.05;;
37275;SDS011;23166;51.150;21.620;2022-09-20T04:42:29;13.35;;;7.53;;
37275;SDS011;23166;51.150;21.620;2022-09-20T04:59:31;15.75;;;6.42;;
37275;SDS011;23166;51.150;21.620;2022-09-20T05:16:01;10.03;;;5.95;;
37275;SDS011;23166;51.150;21.620;2022-09-20T05:21:45;12.78;;;5.60;;
37275;SDS011;23166;51.150;21.620;2022-09-20T05:30:25;12.47;;;6.30;;
37275;SDS011;23166;51.150;21.620;2022-09-20T05:33:00;13.85;;;6.65;;
37275;SDS011;23166;51.150;21.620;2022-09-20T05:35:38;14.03;;;5.95;;
37275;SDS011;23166;51.150;21.620;2022-09-20T05:44:23;14.70;;;5.33;;
37275;SDS011;23166;51.150;21.620;2022-09-20T05:47:12;10.35;;;5.53;;
37275;SDS011;23166;51.150;21.620;2022-09-20T06:00:41;8.35;;;4.65;;
37275;SDS011;23166;51.150;21.620;2022-09-20T06:14:29;6.85;;;4.30;;
37275;SDS011;23166;51.150;21.620;2022-09-20T06:17:17;7.62;;;4.55;;
37275;SDS011;23166;51.150;21.620;2022-09-20T06:19:51;6.92;;;4.15;;
37275;SDS011;23166;51.150;21.620;2022-09-20T06:27:44;10.18;;;4.37;;
37275;SDS011;23166;51.150;21.620;2022-09-20T06:30:15;8.75;;;4.65;;
37275;SDS011;23166;51.150;21.620;2022-09-20T06:32:58;12.55;;;4.92;;
37275;SDS011;23166;51.150;21.620;2022-09-20T06:35:23;7.62;;;4.78;;
37275;SDS011;23166;51.150;21.620;2022-09-20T06:37:53;8.08;;;5.37;;
37275;SDS011;23166;51.150;21.620;2022-09-20T06:40:50;8.80;;;4.03;;
37275;SDS011;23166;51.150;21.620;2022-09-20T06:43:36;9.75;;;4.58;;
37275;SDS011;23166;51.150;21.620;2022-09-20T06:46:05;14.20;;;4.53;;
37275;SDS011;23166;51.150;21.620;2022-09-20T06:48:31;7.25;;;4.37;;
37275;SDS011;23166;51.150;21.620;2022-09-20T06:50:58;5.97;;;4.30;;
37275;SDS011;23166;51.150;21.620;2022-09-20T06:53:30;6.40;;;4.62;;
37275;SDS011;23166;51.150;21.620;2022-09-20T06:55:58;5.97;;;3.62;;
37275;SDS011;23166;51.150;21.620;2022-09-20T06:58:26;8.63;;;4.05;;
37275;SDS011;23166;51.150;21.620;2022-09-20T07:00:52;6.70;;;4.22;;
37275;SDS011;23166;51.150;21.620;2022-09-20T07:03:19;6.22;;;4.20;;
37275;SDS011;23166;51.150;21.620;2022-09-20T07:05:46;7.35;;;4.50;;
37275;SDS011;23166;51.150;21.620;2022-09-20T07:10:39;8.78;;;4.25;;
37275;SDS011;23166;51.150;21.620;2022-09-20T07:13:05;6.17;;;4.17;;
37275;SDS011;23166;51.150;21.620;2022-09-20T07:15:32;5.87;;;4.33;;
37275;SDS011;23166;51.150;21.620;2022-09-20T07:17:59;6.80;;;3.45;;
37275;SDS011;23166;51.150;21.620;2022-09-20T07:20:26;5.83;;;4.10;;
37275;SDS011;23166;51.150;21.620;2022-09-20T07:22:52;6.83;;;4.60;;
37275;SDS011;23166;51.150;21.620;2022-09-20T07:25:19;6.83;;;4.53;;
37275;SDS011;23166;51.150;21.620;2022-09-20T07:27:47;7.58;;;4.00;;
37275;SDS011;23166;51.150;21.620;2022-09-20T07:30:16;8.10;;;4.12;;
37275;SDS011;23166;51.150;21.620;2022-09-20T07:32:43;9.10;;;4.33;;
37275;SDS011;23166;51.150;21.620;2022-09-20T07:35:10;6.12;;;4.05;;
37275;SDS011;23166;51.150;21.620;2022-09-20T07:37:37;9.60;;;4.55;;
37275;SDS011;23166;51.150;21.620;2022-09-20T07:40:06;6.05;;;4.45;;
37275;SDS011;23166;51.150;21.620;2022-09-20T07:42:34;6.58;;;3.72;;
37275;SDS011;23166;51.150;21.620;2022-09-20T07:45:01;7.25;;;4.15;;
37275;SDS011;23166;51.150;21.620;2022-09-20T07:47:28;8.58;;;4.30;;
37275;SDS011;23166;51.150;21.620;2022-09-20T07:49:56;6.72;;;4.83;;
37275;SDS011;23166;51.150;21.620;2022-09-20T07:52:23;8.10;;;4.42;;
37275;SDS011;23166;51.150;21.620;2022-09-20T07:54:49;8.60;;;4.67;;
37275;SDS011;23166;51.150;21.620;2022-09-20T07:57:16;7.10;;;3.72;;
37275;SDS011;23166;51.150;21.620;2022-09-20T07:59:43;12.28;;;4.08;;
37275;SDS011;23166;51.150;21.620;2022-09-20T08:02:13;8.40;;;3.65;;
37275;SDS011;23166;51.150;21.620;2022-09-20T08:04:40;7.78;;;4.10;;
37275;SDS011;23166;51.150;21.620;2022-09-20T08:07:07;13.15;;;4.75;;
37275;SDS011;23166;51.150;21.620;2022-09-20T08:09:34;7.75;;;4.03;;
37275;SDS011;23166;51.150;21.620;2022-09-20T08:12:00;5.67;;;3.85;;
37275;SDS011;23166;51.150;21.620;2022-09-20T08:14:27;13.13;;;4.83;;
37275;SDS011;23166;51.150;21.620;2022-09-20T08:16:53;11.70;;;4.60;;
37275;SDS011;23166;51.150;21.620;2022-09-20T08:19:22;9.13;;;3.90;;
37275;SDS011;23166;51.150;21.620;2022-09-20T08:21:49;7.53;;;4.47;;
37275;SDS011;23166;51.150;21.620;2022-09-20T08:24:18;5.08;;;4.00;;
37275;SDS011;23166;51.150;21.620;2022-09-20T08:26:45;6.97;;;3.50;;
37275;SDS011;23166;51.150;21.620;2022-09-20T08:29:11;6.53;;;4.08;;
37275;SDS011;23166;51.150;21.620;2022-09-20T08:31:39;7.83;;;4.35;;
37275;SDS011;23166;51.150;21.620;2022-09-20T08:34:07;6.92;;;3.37;;
37275;SDS011;23166;51.150;21.620;2022-09-20T08:36:37;7.30;;;3.52;;
37275;SDS011;23166;51.150;21.620;2022-09-20T08:39:05;6.03;;;3.83;;
37275;SDS011;23166;51.150;21.620;2022-09-20T08:41:33;5.40;;;3.47;;
37275;SDS011;23166;51.150;21.620;2022-09-20T08:44:13;6.08;;;3.83;;
37275;SDS011;23166;51.150;21.620;2022-09-20T08:46:47;7.10;;;3.30;;
37275;SDS011;23166;51.150;21.620;2022-09-20T08:49:25;5.25;;;3.37;;
37275;SDS011;23166;51.150;21.620;2022-09-20T08:51:53;8.23;;;3.62;;
37275;SDS011;23166;51.150;21.620;2022-09-20T08:54:23;6.22;;;3.17;;
37275;SDS011;23166;51.150;21.620;2022-09-20T08:56:51;6.58;;;3.98;;
37275;SDS011;23166;51.150;21.620;2022-09-20T08:59:19;5.97;;;4.42;;
37275;SDS011;23166;51.150;21.620;2022-09-20T09:01:47;10.60;;;4.40;;
37275;SDS011;23166;51.150;21.620;2022-09-20T09:04:16;7.50;;;3.87;;
37275;SDS011;23166;51.150;21.620;2022-09-20T09:06:44;7.00;;;3.70;;
37275;SDS011;23166;51.150;21.620;2022-09-20T09:09:21;11.65;;;4.42;;
37275;SDS011;23166;51.150;21.620;2022-09-20T09:11:50;7.40;;;4.53;;
37275;SDS011;23166;51.150;21.620;2022-09-20T09:14:31;7.28;;;3.42;;
37275;SDS011;23166;51.150;21.620;2022-09-20T09:17:18;6.50;;;3.27;;
37275;SDS011;23166;51.150;21.620;2022-09-20T09:19:47;5.65;;;4.42;;
37275;SDS011;23166;51.150;21.620;2022-09-20T09:22:19;5.78;;;2.85;;
37275;SDS011;23166;51.150;21.620;2022-09-20T09:27:50;6.03;;;3.25;;
37275;SDS011;23166;51.150;21.620;2022-09-20T09:30:21;6.27;;;3.43;;
37275;SDS011;23166;51.150;21.620;2022-09-20T09:38:37;18.70;;;4.12;;
37275;SDS011;23166;51.150;21.620;2022-09-20T09:41:05;4.22;;;3.05;;
37275;SDS011;23166;51.150;21.620;2022-09-20T09:43:35;6.00;;;3.37;;
37275;SDS011;23166;51.150;21.620;2022-09-20T09:51:34;5.87;;;3.52;;
37275;SDS011;23166;51.150;21.620;2022-09-20T09:54:02;7.35;;;3.62;;
37275;SDS011;23166;51.150;21.620;2022-09-20T10:04:45;6.25;;;3.12;;
37275;SDS011;23166;51.150;21.620;2022-09-20T10:07:17;6.22;;;3.55;;
37275;SDS011;23166;51.150;21.620;2022-09-20T10:18:03;7.60;;;2.87;;
37275;SDS011;23166;51.150;21.620;2022-09-20T10:26:56;3.92;;;2.50;;
37275;SDS011;23166;51.150;21.620;2022-09-20T10:31:46;4.35;;;3.12;;
37275;SDS011;23166;51.150;21.620;2022-09-20T10:34:26;4.42;;;2.75;;
37275;SDS011;23166;51.150;21.620;2022-09-20T10:48:41;5.35;;;2.62;;
37275;SDS011;23166;51.150;21.620;2022-09-20T11:08:27;3.75;;;2.20;;
37275;SDS011;23166;51.150;21.620;2022-09-20T11:10:57;4.05;;;2.00;;
37275;SDS011;23166;51.150;21.620;2022-09-20T11:13:33;3.23;;;2.80;;
37275;SDS011;23166;51.150;21.620;2022-09-20T11:16:13;3.62;;;2.17;;
37275;SDS011;23166;51.150;21.620;2022-09-20T11:18:53;3.77;;;3.02;;
37275;SDS011;23166;51.150;21.620;2022-09-20T11:21:25;2.72;;;1.92;;
37275;SDS011;23166;51.150;21.620;2022-09-20T11:23:55;2.67;;;2.30;;
37275;SDS011;23166;51.150;21.620;2022-09-20T11:26:30;4.83;;;2.90;;
37275;SDS011;23166;51.150;21.620;2022-09-20T11:29:17;4.95;;;2.92;;
37275;SDS011;23166;51.150;21.620;2022-09-20T11:32:07;2.58;;;1.92;;
37275;SDS011;23166;51.150;21.620;2022-09-20T11:34:54;3.05;;;2.17;;
37275;SDS011;23166;51.150;21.620;2022-09-20T11:37:18;2.12;;;1.85;;
37275;SDS011;23166;51.150;21.620;2022-09-20T11:39:50;4.70;;;2.08;;
37275;SDS011;23166;51.150;21.620;2022-09-20T11:42:29;3.50;;;2.45;;
37275;SDS011;23166;51.150;21.620;2022-09-20T11:44:54;4.95;;;2.58;;
37275;SDS011;23166;51.150;21.620;2022-09-20T11:47:25;5.37;;;2.72;;
37275;SDS011;23166;51.150;21.620;2022-09-20T11:53:11;2.93;;;2.40;;
37275;SDS011;23166;51.150;21.620;2022-09-20T11:55:49;2.67;;;2.03;;
37275;SDS011;23166;51.150;21.620;2022-09-20T11:58:48;3.33;;;1.72;;
37275;SDS011;23166;51.150;21.620;2022-09-20T12:01:15;3.12;;;2.35;;
37275;SDS011;23166;51.150;21.620;2022-09-20T12:03:45;2.20;;;1.45;;
37275;SDS011;23166;51.150;21.620;2022-09-20T12:09:37;1.25;;;1.15;;
37275;SDS011;23166;51.150;21.620;2022-09-20T12:11:51;1.50;;;1.40;;
37275;SDS011;23166;51.150;21.620;2022-09-20T12:14:18;1.60;;;1.50;;
37275;SDS011;23166;51.150;21.620;2022-09-20T12:16:47;2.58;;;1.85;;
37275;SDS011;23166;51.150;21.620;2022-09-20T12:24:34;2.52;;;1.90;;
37275;SDS011;23166;51.150;21.620;2022-09-20T12:27:18;2.90;;;1.70;;
37275;SDS011;23166;51.150;21.620;2022-09-20T12:37:56;1.98;;;1.65;;
37275;SDS011;23166;51.150;21.620;2022-09-20T12:40:24;4.67;;;1.87;;
37275;SDS011;23166;51.150;21.620;2022-09-20T12:42:53;5.70;;;2.85;;
37275;SDS011;23166;51.150;21.620;2022-09-20T12:45:21;4.72;;;3.05;;
37275;SDS011;23166;51.150;21.620;2022-09-20T12:47:54;10.20;;;3.20;;
37275;SDS011;23166;51.150;21.620;2022-09-20T12:50:21;4.45;;;2.40;;
37275;SDS011;23166;51.150;21.620;2022-09-20T12:53:12;6.67;;;1.80;;
37275;SDS011;23166;51.150;21.620;2022-09-20T13:14:28;3.12;;;1.72;;
37275;SDS011;23166;51.150;21.620;2022-09-20T13:16:58;1.90;;;1.60;;
37275;SDS011;23166;51.150;21.620;2022-09-20T13:19:29;6.97;;;1.87;;
37275;SDS011;23166;51.150;21.620;2022-09-20T13:22:03;4.55;;;2.30;;
37275;SDS011;23166;51.150;21.620;2022-09-20T13:24:36;2.95;;;1.75;;
37275;SDS011;23166;51.150;21.620;2022-09-20T13:27:10;1.60;;;1.20;;
37275;SDS011;23166;51.150;21.620;2022-09-20T13:29:41;6.78;;;2.25;;
37275;SDS011;23166;51.150;21.620;2022-09-20T13:38:01;5.85;;;2.10;;
37275;SDS011;23166;51.150;21.620;2022-09-20T13:40:16;3.77;;;2.00;;
37275;SDS011;23166;51.150;21.620;2022-09-20T13:43:11;2.52;;;1.82;;
37275;SDS011;23166;51.150;21.620;2022-09-20T13:45:56;2.58;;;0.88;;
37275;SDS011;23166;51.150;21.620;2022-09-20T13:48:27;1.87;;;1.05;;
37275;SDS011;23166;51.150;21.620;2022-09-20T13:50:55;1.20;;;1.05;;
37275;SDS011;23166;51.150;21.620;2022-09-20T13:53:22;1.72;;;1.60;;
37275;SDS011;23166;51.150;21.620;2022-09-20T13:55:51;4.85;;;1.77;;
37275;SDS011;23166;51.150;21.620;2022-09-20T13:58:24;2.65;;;1.77;;
37275;SDS011;23166;51.150;21.620;2022-09-20T14:03:29;0.65;;;0.60;;
37275;SDS011;23166;51.150;21.620;2022-09-20T14:06:00;1.72;;;1.00;;
37275;SDS011;23166;51.150;21.620;2022-09-20T14:08:32;1.75;;;0.80;;
37275;SDS011;23166;51.150;21.620;2022-09-20T14:11:05;3.20;;;0.85;;
37275;SDS011;23166;51.150;21.620;2022-09-20T14:16:16;1.55;;;1.02;;
37275;SDS011;23166;51.150;21.620;2022-09-20T14:18:45;2.90;;;1.35;;
37275;SDS011;23166;51.150;21.620;2022-09-20T14:21:13;1.27;;;1.17;;
37275;SDS011;23166;51.150;21.620;2022-09-20T14:24:00;2.02;;;1.20;;
37275;SDS011;23166;51.150;21.620;2022-09-20T14:26:33;4.33;;;1.75;;
37275;SDS011;23166;51.150;21.620;2022-09-20T14:31:56;1.45;;;1.17;;
37275;SDS011;23166;51.150;21.620;2022-09-20T14:34:25;3.75;;;1.67;;
37275;SDS011;23166;51.150;21.620;2022-09-20T14:36:56;3.67;;;1.77;;
37275;SDS011;23166;51.150;21.620;2022-09-20T14:39:21;3.25;;;1.35;;
37275;SDS011;23166;51.150;21.620;2022-09-20T14:41:48;2.00;;;1.30;;
37275;SDS011;23166;51.150;21.620;2022-09-20T14:44:36;1.55;;;1.32;;
37275;SDS011;23166;51.150;21.620;2022-09-20T14:46:48;4.50;;;1.07;;
37275;SDS011;23166;51.150;21.620;2022-09-20T14:49:19;2.47;;;1.20;;
37275;SDS011;23166;51.150;21.620;2022-09-20T14:51:47;1.60;;;1.25;;
37275;SDS011;23166;51.150;21.620;2022-09-20T14:56:50;3.07;;;1.43;;
37275;SDS011;23166;51.150;21.620;2022-09-20T14:59:25;3.75;;;1.40;;
37275;SDS011;23166;51.150;21.620;2022-09-20T15:01:58;5.33;;;1.65;;
37275;SDS011;23166;51.150;21.620;2022-09-20T15:04:38;4.90;;;2.08;;
37275;SDS011;23166;51.150;21.620;2022-09-20T15:07:07;1.55;;;1.30;;
37275;SDS011;23166;51.150;21.620;2022-09-20T15:09:36;5.95;;;2.90;;
37275;SDS011;23166;51.150;21.620;2022-09-20T15:14:32;4.60;;;2.60;;
37275;SDS011;23166;51.150;21.620;2022-09-20T15:16:58;3.15;;;2.35;;
37275;SDS011;23166;51.150;21.620;2022-09-20T15:19:25;2.60;;;1.95;;
37275;SDS011;23166;51.150;21.620;2022-09-20T15:21:53;8.33;;;2.27;;
37275;SDS011;23166;51.150;21.620;2022-09-20T15:24:19;3.30;;;1.85;;
37275;SDS011;23166;51.150;21.620;2022-09-20T15:26:45;3.33;;;2.12;;
37275;SDS011;23166;51.150;21.620;2022-09-20T15:29:15;4.55;;;1.90;;
37275;SDS011;23166;51.150;21.620;2022-09-20T15:31:42;6.28;;;2.80;;
37275;SDS011;23166;51.150;21.620;2022-09-20T15:34:11;6.72;;;2.45;;
37275;SDS011;23166;51.150;21.620;2022-09-20T15:36:39;3.67;;;2.37;;
37275;SDS011;23166;51.150;21.620;2022-09-20T15:39:06;6.15;;;2.40;;
37275;SDS011;23166;51.150;21.620;2022-09-20T15:41:33;6.62;;;2.92;;
37275;SDS011;23166;51.150;21.620;2022-09-20T15:44:01;3.77;;;2.65;;
37275;SDS011;23166;51.150;21.620;2022-09-20T15:46:28;4.35;;;2.27;;
37275;SDS011;23166;51.150;21.620;2022-09-20T15:48:56;4.12;;;2.30;;
37275;SDS011;23166;51.150;21.620;2022-09-20T15:51:25;11.55;;;6.05;;
37275;SDS011;23166;51.150;21.620;2022-09-20T15:53:55;3.77;;;2.80;;
37275;SDS011;23166;51.150;21.620;2022-09-20T15:56:26;5.10;;;3.95;;
37275;SDS011;23166;51.150;21.620;2022-09-20T15:59:00;32.42;;;9.28;;
37275;SDS011;23166;51.150;21.620;2022-09-20T16:03:57;16.27;;;10.28;;
37275;SDS011;23166;51.150;21.620;2022-09-20T16:06:24;6.00;;;2.98;;
37275;SDS011;23166;51.150;21.620;2022-09-20T16:08:51;3.00;;;2.05;;
37275;SDS011;23166;51.150;21.620;2022-09-20T16:11:18;5.55;;;3.45;;
37275;SDS011;23166;51.150;21.620;2022-09-20T16:13:46;4.53;;;2.00;;
37275;SDS011;23166;51.150;21.620;2022-09-20T16:16:14;8.10;;;5.37;;
37275;SDS011;23166;51.150;21.620;2022-09-20T16:18:42;17.65;;;11.75;;
37275;SDS011;23166;51.150;21.620;2022-09-20T16:21:27;4.75;;;3.37;;
37275;SDS011;23166;51.150;21.620;2022-09-20T16:23:54;4.35;;;1.92;;
37275;SDS011;23166;51.150;21.620;2022-09-20T16:26:22;3.30;;;2.22;;
37275;SDS011;23166;51.150;21.620;2022-09-20T16:28:51;6.58;;;3.58;;
37275;SDS011;23166;51.150;21.620;2022-09-20T16:33:55;33.48;;;11.20;;
37275;SDS011;23166;51.150;21.620;2022-09-20T16:36:22;9.93;;;4.33;;
37275;SDS011;23166;51.150;21.620;2022-09-20T16:38:50;11.85;;;4.50;;
37275;SDS011;23166;51.150;21.620;2022-09-20T16:41:18;25.40;;;10.85;;
37275;SDS011;23166;51.150;21.620;2022-09-20T16:43:44;27.27;;;10.48;;
37275;SDS011;23166;51.150;21.620;2022-09-20T16:46:12;39.45;;;15.10;;
37275;SDS011;23166;51.150;21.620;2022-09-20T16:48:39;36.05;;;13.78;;
37275;SDS011;23166;51.150;21.620;2022-09-20T16:51:05;46.18;;;20.10;;
37275;SDS011;23166;51.150;21.620;2022-09-20T16:53:32;38.63;;;14.25;;
37275;SDS011;23166;51.150;21.620;2022-09-20T16:55:58;43.42;;;13.95;;
37275;SDS011;23166;51.150;21.620;2022-09-20T16:58:26;32.35;;;11.48;;
37275;SDS011;23166;51.150;21.620;2022-09-20T17:01:08;25.32;;;9.88;;
37275;SDS011;23166;51.150;21.620;2022-09-20T17:03:33;75.32;;;29.10;;
37275;SDS011;23166;51.150;21.620;2022-09-20T17:06:00;53.85;;;21.00;;
37275;SDS011;23166;51.150;21.620;2022-09-20T17:08:27;32.65;;;13.72;;
37275;SDS011;23166;51.150;21.620;2022-09-20T17:10:57;37.15;;;13.90;;
37275;SDS011;23166;51.150;21.620;2022-09-20T17:13:30;23.05;;;10.82;;
37275;SDS011;23166;51.150;21.620;2022-09-20T17:16:00;23.25;;;7.83;;
37275;SDS011;23166;51.150;21.620;2022-09-20T17:18:28;17.15;;;8.38;;
37275;SDS011;23166;51.150;21.620;2022-09-20T17:20:54;22.73;;;10.08;;
37275;SDS011;23166;51.150;21.620;2022-09-20T17:23:21;27.62;;;11.78;;
37275;SDS011;23166;51.150;21.620;2022-09-20T17:25:48;31.50;;;12.20;;
37275;SDS011;23166;51.150;21.620;2022-09-20T17:28:19;29.18;;;12.40;;
37275;SDS011;23166;51.150;21.620;2022-09-20T17:30:45;21.00;;;9.80;;
37275;SDS011;23166;51.150;21.620;2022-09-20T17:33:12;18.90;;;8.38;;
37275;SDS011;23166;51.150;21.620;2022-09-20T17:38:07;10.23;;;5.00;;
37275;SDS011;23166;51.150;21.620;2022-09-20T17:40:33;14.07;;;6.15;;
37275;SDS011;23166;51.150;21.620;2022-09-20T17:43:00;15.13;;;7.35;;
37275;SDS011;23166;51.150;21.620;2022-09-20T17:45:26;9.30;;;5.03;;
37275;SDS011;23166;51.150;21.620;2022-09-20T17:47:53;13.65;;;6.08;;
37275;SDS011;23166;51.150;21.620;2022-09-20T17:50:21;10.60;;;5.75;;
37275;SDS011;23166;51.150;21.620;2022-09-20T17:52:47;6.97;;;4.50;;
37275;SDS011;23166;51.150;21.620;2022-09-20T17:55:14;11.90;;;5.05;;
37275;SDS011;23166;51.150;21.620;2022-09-20T17:57:41;6.20;;;3.55;;
37275;SDS011;23166;51.150;21.620;2022-09-20T18:00:07;6.20;;;2.75;;
37275;SDS011;23166;51.150;21.620;2022-09-20T18:05:01;4.40;;;1.52;;
37275;SDS011;23166;51.150;21.620;2022-09-20T18:07:27;3.02;;;1.30;;
37275;SDS011;23166;51.150;21.620;2022-09-20T18:09:54;2.58;;;1.82;;
37275;SDS011;23166;51.150;21.620;2022-09-20T18:12:20;0.75;;;0.75;;
37275;SDS011;23166;51.150;21.620;2022-09-20T18:14:47;5.30;;;1.85;;
37275;SDS011;23166;51.150;21.620;2022-09-20T18:17:13;2.17;;;1.15;;
37275;SDS011;23166;51.150;21.620;2022-09-20T18:19:40;1.90;;;1.07;;
37275;SDS011;23166;51.150;21.620;2022-09-20T18:22:08;2.87;;;1.05;;
37275;SDS011;23166;51.150;21.620;2022-09-20T18:24:34;2.83;;;1.17;;
37275;SDS011;23166;51.150;21.620;2022-09-20T18:27:01;4.67;;;1.47;;
37275;SDS011;23166;51.150;21.620;2022-09-20T18:29:28;1.75;;;0.90;;
37275;SDS011;23166;51.150;21.620;2022-09-20T18:31:57;1.12;;;0.90;;
37275;SDS011;23166;51.150;21.620;2022-09-20T18:34:25;1.42;;;1.05;;
37275;SDS011;23166;51.150;21.620;2022-09-20T18:36:55;1.77;;;1.12;;
37275;SDS011;23166;51.150;21.620;2022-09-20T18:39:24;2.70;;;1.10;;
37275;SDS011;23166;51.150;21.620;2022-09-20T18:41:52;3.00;;;0.88;;
37275;SDS011;23166;51.150;21.620;2022-09-20T18:44:19;3.02;;;1.15;;
37275;SDS011;23166;51.150;21.620;2022-09-20T18:46:47;1.22;;;0.93;;
37275;SDS011;23166;51.150;21.620;2022-09-20T18:49:14;2.20;;;1.65;;
37275;SDS011;23166;51.150;21.620;2022-09-20T18:51:41;1.32;;;1.22;;
37275;SDS011;23166;51.150;21.620;2022-09-20T18:54:09;2.47;;;1.57;;
37275;SDS011;23166;51.150;21.620;2022-09-20T18:56:37;2.70;;;1.55;;
37275;SDS011;23166;51.150;21.620;2022-09-20T18:59:06;4.05;;;2.27;;
37275;SDS011;23166;51.150;21.620;2022-09-20T19:04:53;8.88;;;4.25;;
37275;SDS011;23166;51.150;21.620;2022-09-20T19:06:42;11.88;;;4.05;;
37275;SDS011;23166;51.150;21.620;2022-09-20T19:09:23;7.00;;;3.72;;
37275;SDS011;23166;51.150;21.620;2022-09-20T19:11:59;6.33;;;3.17;;
37275;SDS011;23166;51.150;21.620;2022-09-20T19:14:28;3.00;;;2.17;;
37275;SDS011;23166;51.150;21.620;2022-09-20T19:17:10;8.35;;;3.80;;
37275;SDS011;23166;51.150;21.620;2022-09-20T19:19:44;4.33;;;3.33;;
37275;SDS011;23166;51.150;21.620;2022-09-20T19:25:17;11.60;;;4.92;;
37275;SDS011;23166;51.150;21.620;2022-09-20T19:27:45;5.90;;;3.07;;
37275;SDS011;23166;51.150;21.620;2022-09-20T19:30:13;4.03;;;2.33;;
37275;SDS011;23166;51.150;21.620;2022-09-20T19:32:40;7.22;;;4.25;;
37275;SDS011;23166;51.150;21.620;2022-09-20T19:35:13;4.25;;;2.47;;
37275;SDS011;23166;51.150;21.620;2022-09-20T19:52:11;7.78;;;4.15;;
37275;SDS011;23166;51.150;21.620;2022-09-20T19:54:38;8.55;;;4.05;;
37275;SDS011;23166;51.150;21.620;2022-09-20T19:57:08;9.18;;;3.45;;
37275;SDS011;23166;51.150;21.620;2022-09-20T19:59:38;9.70;;;2.92;;
37275;SDS011;23166;51.150;21.620;2022-09-20T20:02:05;5.15;;;2.77;;
37275;SDS011;23166;51.150;21.620;2022-09-20T20:04:33;4.37;;;2.30;;
37275;SDS011;23166;51.150;21.620;2022-09-20T20:07:05;2.05;;;1.50;;
37275;SDS011;23166;51.150;21.620;2022-09-20T20:17:49;5.62;;;2.22;;
37275;SDS011;23166;51.150;21.620;2022-09-20T20:28:38;2.95;;;1.72;;
37275;SDS011;23166;51.150;21.620;2022-09-20T20:31:04;5.42;;;3.15;;
37275;SDS011;23166;51.150;21.620;2022-09-20T20:35:58;3.33;;;2.10;;
37275;SDS011;23166;51.150;21.620;2022-09-20T20:38:26;2.35;;;1.72;;
37275;SDS011;23166;51.150;21.620;2022-09-20T20:43:30;4.70;;;2.02;;
37275;SDS011;23166;51.150;21.620;2022-09-20T20:45:59;3.90;;;2.02;;
37275;SDS011;23166;51.150;21.620;2022-09-20T20:48:25;2.65;;;1.47;;
37275;SDS011;23166;51.150;21.620;2022-09-20T20:53:39;2.65;;;1.67;;
37275;SDS011;23166;51.150;21.620;2022-09-20T20:56:10;2.83;;;1.20;;
37275;SDS011;23166;51.150;21.620;2022-09-20T20:58:38;2.65;;;1.45;;
37275;SDS011;23166;51.150;21.620;2022-09-20T21:03:49;4.25;;;2.12;;
37275;SDS011;23166;51.150;21.620;2022-09-20T21:06:18;4.28;;;1.65;;
37275;SDS011;23166;51.150;21.620;2022-09-20T21:08:46;2.45;;;1.67;;
37275;SDS011;23166;51.150;21.620;2022-09-20T21:11:14;2.70;;;1.77;;
37275;SDS011;23166;51.150;21.620;2022-09-20T21:13:52;3.80;;;2.20;;
37275;SDS011;23166;51.150;21.620;2022-09-20T21:16:17;3.77;;;1.57;;